Flood From: 18-02-2018 16:00 Until: 19-02-2018 16:00 warning for: Flood Level: Yellow info button

Although rather usual in this region, locally or potentially dangerous phenomena are expected. (such as local winds, summer thunderstorms, rising streams or high waves) Be aware and pay attention to the latest weather updates, especially if you carry out activities exposed to weather or close to a stream or shoreline. 


Meteo18 Weather Cam more information Meteo18 Weather Cam


Thunder radar more information blitzortung!


Rain radar more information rain snow radar


Visit our other weather sites:

Template documentation
and downloads

And another site



Weather Underground History page Text

Daily Summary for December 15, 2017 Units:  English    Metric   Both
« Previous Day
Next Day »
Daily Weekly Monthly Yearly Custom
  High: Low: Average:
Temperature: TemperatureC °F 2.7 °F 4.3 °F
Dew Point: DewpointC °F 1.6 °F 2.7 °F
Humidity: Humidity % 81 % 89 %
Wind Speed: WindSpeedKMH mph 0.0 mph 11.8 mph
Wind Gust: WindSpeedGustKMH mph - -
Wind:- - WSW
Pressure: PressurehPa in 999.2 in -
Precipitation: 3.6 in    
Historical Graphs
 
 
Tabular Data for December 15, 2017
Time Temperature Dew Point Pressure Wind Wind Speed Wind Gust Humidity Rainfall Rate (Hourly)
TemperatureC °F DewpointC °F PressurehPa in Calm     Humidity % HourlyPrecipMM in
00:02 4.9 °F 3.2 °F 999.5 in WSW 9.7 mph 19.3 mph 89 % 0.0 in
00:12 4.8 °F 3.1 °F 999.9 in WSW 16.1 mph 20.9 mph 89 % 0.0 in
00:17 4.8 °F 3.0 °F 999.9 in West 8.0 mph 20.9 mph 88 % 0.0 in
00:22 4.8 °F 3.0 °F 1000.2 in SW 8.0 mph 22.5 mph 88 % 0.0 in
00:32 4.7 °F 3.0 °F 1000.2 in WSW 6.4 mph 22.5 mph 89 % 0.0 in
00:42 4.7 °F 3.2 °F 1000.2 in WSW 17.7 mph 22.5 mph 90 % 0.0 in
00:47 4.6 °F 2.9 °F 1000.2 in West 6.4 mph 24.1 mph 89 % 0.0 in
00:52 4.6 °F 2.9 °F 1000.2 in SSW 6.4 mph 24.1 mph 89 % 0.0 in
00:57 4.6 °F 2.9 °F 1000.2 in WSW 20.9 mph 24.1 mph 89 % 0.0 in
01:02 4.6 °F 2.9 °F 1000.2 in WSW 19.3 mph 32.2 mph 89 % 0.0 in
01:07 4.6 °F 2.9 °F 1000.2 in WSW 8.0 mph 32.2 mph 89 % 0.0 in
01:12 4.6 °F 2.9 °F 1000.2 in WSW 14.5 mph 32.2 mph 89 % 0.0 in
01:17 4.6 °F 2.9 °F 1000.2 in WSW 4.8 mph 25.7 mph 89 % 0.0 in
01:22 4.5 °F 2.8 °F 1000.6 in WSW 12.9 mph 20.9 mph 89 % 0.0 in
01:27 4.5 °F 2.8 °F 1000.6 in West 8.0 mph 19.3 mph 89 % 0.0 in
01:32 4.5 °F 2.8 °F 1000.2 in SW 6.4 mph 24.1 mph 89 % 0.0 in
01:42 4.4 °F 2.7 °F 1000.6 in SW 9.7 mph 24.1 mph 89 % 0.0 in
01:47 4.4 °F 2.9 °F 1000.2 in SW 4.8 mph 19.3 mph 90 % 0.0 in
01:52 4.3 °F 2.8 °F 1000.2 in West 6.4 mph 19.3 mph 90 % 0.0 in
01:57 4.2 °F 2.7 °F 1000.2 in SW 9.7 mph 19.3 mph 90 % 0.0 in
02:02 4.1 °F 2.6 °F 1000.2 in SSW 6.4 mph 17.7 mph 90 % 0.0 in
02:07 3.9 °F 2.4 °F 1000.2 in South 4.8 mph 17.7 mph 90 % 0.0 in
02:12 3.8 °F 2.5 °F 1000.2 in SW 9.7 mph 17.7 mph 91 % 0.0 in
02:17 3.8 °F 2.5 °F 1000.2 in SW 9.7 mph 17.7 mph 91 % 0.0 in
02:22 3.7 °F 2.4 °F 1000.2 in SW 8.0 mph 17.7 mph 91 % 0.0 in
02:27 3.6 °F 2.1 °F 1000.2 in SSW 9.7 mph 17.7 mph 90 % 0.0 in
02:32 3.4 °F 2.1 °F 1000.2 in SSW 11.3 mph 17.7 mph 91 % 0.0 in
02:37 3.4 °F 2.1 °F 1000.2 in SW 9.7 mph 17.7 mph 91 % 0.0 in
02:42 3.4 °F 2.1 °F 999.9 in SW 14.5 mph 17.7 mph 91 % 0.0 in
02:52 3.5 °F 2.2 °F 1000.2 in SW 3.2 mph 17.7 mph 91 % 0.0 in
02:57 3.6 °F 2.3 °F 999.9 in SSW 8.0 mph 19.3 mph 91 % 0.0 in
03:02 3.6 °F 2.1 °F 1000.2 in West 12.9 mph 22.5 mph 90 % 0.0 in
03:07 3.6 °F 2.3 °F 1000.2 in SW 14.5 mph 22.5 mph 91 % 0.0 in
03:12 3.7 °F 2.2 °F 999.9 in SW 11.3 mph 22.5 mph 90 % 0.0 in
03:17 3.7 °F 2.2 °F 999.9 in SW 12.9 mph 24.1 mph 90 % 0.0 in
03:22 3.8 °F 2.3 °F 999.9 in SW 20.9 mph 24.1 mph 90 % 0.0 in
03:32 3.9 °F 2.4 °F 999.9 in SW 6.4 mph 32.2 mph 90 % 0.0 in
03:37 4.0 °F 2.5 °F 999.9 in WSW 11.3 mph 32.2 mph 90 % 0.0 in
03:42 4.0 °F 2.5 °F 999.9 in SW 19.3 mph 32.2 mph 90 % 0.0 in
03:47 4.1 °F 2.6 °F 999.9 in West 11.3 mph 30.6 mph 90 % 0.0 in
03:52 4.1 °F 2.5 °F 1000.2 in SW 12.9 mph 30.6 mph 89 % 0.0 in
03:57 4.1 °F 2.5 °F 1000.2 in SSW 8.0 mph 30.6 mph 89 % 0.0 in
04:02 4.1 °F 2.5 °F 1000.2 in WSW 24.1 mph 25.7 mph 89 % 0.0 in
04:13 4.2 °F 2.5 °F 1000.2 in West 12.9 mph 27.4 mph 89 % 0.0 in
04:22 4.2 °F 2.5 °F 1000.2 in WSW 16.1 mph 25.7 mph 89 % 0.0 in
04:27 4.2 °F 2.5 °F 1000.2 in West 11.3 mph 25.7 mph 89 % 0.0 in
04:32 4.1 °F 2.5 °F 1000.2 in SW 12.9 mph 25.7 mph 89 % 0.0 in
04:37 4.2 °F 2.5 °F 1000.2 in WSW 16.1 mph 20.9 mph 89 % 0.0 in
04:42 4.2 °F 2.5 °F 1000.2 in WSW 8.0 mph 29.0 mph 89 % 0.0 in
04:47 4.3 °F 2.6 °F 1000.2 in SW 9.7 mph 38.6 mph 89 % 0.0 in
04:52 4.3 °F 2.6 °F 1000.6 in WSW 17.7 mph 38.6 mph 89 % 0.0 in
04:57 4.3 °F 2.6 °F 1000.6 in WSW 12.9 mph 38.6 mph 89 % 0.0 in
05:02 4.3 °F 2.6 °F 1000.6 in WSW 9.7 mph 29.0 mph 89 % 0.0 in
05:12 4.3 °F 2.6 °F 1000.6 in WSW 14.5 mph 25.7 mph 89 % 0.0 in
05:17 4.3 °F 2.6 °F 1000.6 in SW 11.3 mph 25.7 mph 89 % 0.0 in
05:22 4.3 °F 2.6 °F 1000.6 in WSW 19.3 mph 27.4 mph 89 % 0.0 in
05:32 4.2 °F 2.5 °F 1000.6 in West 12.9 mph 27.4 mph 89 % 0.0 in
05:42 4.3 °F 2.6 °F 1000.6 in WSW 12.9 mph 33.8 mph 89 % 0.0 in
05:47 4.3 °F 2.5 °F 1000.6 in West 14.5 mph 29.0 mph 88 % 0.0 in
05:52 4.3 °F 2.5 °F 1000.6 in WSW 17.7 mph 29.0 mph 88 % 0.0 in
05:57 4.3 °F 2.5 °F 1000.6 in West 22.5 mph 24.1 mph 88 % 0.0 in
06:02 4.3 °F 2.6 °F 1000.6 in West 12.9 mph 24.1 mph 89 % 0.0 in
06:07 4.2 °F 2.5 °F 1000.9 in West 16.1 mph 27.4 mph 89 % 0.0 in
06:12 4.3 °F 2.5 °F 1000.9 in SW 12.9 mph 27.4 mph 88 % 0.0 in
06:22 4.2 °F 2.5 °F 1000.9 in WSW 12.9 mph 27.4 mph 89 % 0.0 in
06:32 4.1 °F 2.5 °F 1000.9 in West 8.0 mph 22.5 mph 89 % 0.0 in
06:37 4.0 °F 2.4 °F 1000.9 in SW 16.1 mph 27.4 mph 89 % 0.0 in
06:42 3.9 °F 2.3 °F 1000.9 in WSW 11.3 mph 27.4 mph 89 % 0.0 in
06:47 3.9 °F 2.4 °F 1000.9 in West 24.1 mph 30.6 mph 90 % 0.0 in
06:52 3.8 °F 2.3 °F 1000.9 in SW 11.3 mph 30.6 mph 90 % 0.0 in
06:57 3.7 °F 2.2 °F 1000.9 in West 3.2 mph 30.6 mph 90 % 0.0 in
07:02 3.6 °F 2.1 °F 1000.9 in WSW 9.7 mph 30.6 mph 90 % 0.0 in
07:12 3.4 °F 2.1 °F 1000.9 in West 8.0 mph 20.9 mph 91 % 0.0 in
07:17 3.4 °F 2.1 °F 1000.6 in SSW 4.8 mph 22.5 mph 91 % 0.0 in
07:22 3.3 °F 2.0 °F 1000.9 in WSW 6.4 mph 22.5 mph 91 % 0.0 in
07:32 3.2 °F 2.0 °F 1000.9 in SW 4.8 mph 22.5 mph 92 % 0.0 in
07:37 3.2 °F 2.0 °F 1000.9 in WSW 9.7 mph 17.7 mph 92 % 0.0 in
07:42 3.1 °F 1.9 °F 1000.9 in SW 8.0 mph 17.7 mph 92 % 0.0 in
07:52 2.9 °F 1.7 °F 1001.2 in WSW 9.7 mph 17.7 mph 92 % 0.0 in
07:57 2.9 °F 1.7 °F 1001.2 in SW 4.8 mph 16.1 mph 92 % 0.0 in
08:02 2.9 °F 1.7 °F 1001.2 in SW 3.2 mph 12.9 mph 92 % 0.0 in
08:07 2.9 °F 1.7 °F 1001.2 in SW 6.4 mph 11.3 mph 92 % 0.0 in
08:12 2.8 °F 1.6 °F 1001.2 in SW 11.3 mph 11.3 mph 92 % 0.0 in
08:17 2.9 °F 1.9 °F 1001.6 in WSW 9.7 mph 16.1 mph 93 % 0.0 in
08:22 2.9 °F 1.9 °F 1001.6 in WSW 16.1 mph 16.1 mph 93 % 0.0 in
08:27 2.9 °F 1.9 °F 1001.2 in SW 8.0 mph 16.1 mph 93 % 0.0 in
08:37 2.9 °F 1.9 °F 1001.2 in SSE 8.0 mph 17.7 mph 93 % 0.0 in
08:42 2.9 °F 1.9 °F 1001.6 in SW 11.3 mph 17.7 mph 93 % 0.0 in
08:47 2.9 °F 1.9 °F 1001.6 in SW 6.4 mph 16.1 mph 93 % 0.0 in
08:52 2.8 °F 1.8 °F 1001.6 in SW 4.8 mph 16.1 mph 93 % 0.0 in
08:57 2.8 °F 1.8 °F 1001.6 in SW 8.0 mph 17.7 mph 93 % 0.0 in
09:02 2.7 °F 1.7 °F 1001.6 in SSW 8.0 mph 17.7 mph 93 % 0.0 in
09:12 2.8 °F 1.8 °F 1001.9 in SW 6.4 mph 12.9 mph 93 % 0.0 in
09:17 2.9 °F 1.9 °F 1001.9 in SW 4.8 mph 11.3 mph 93 % 0.0 in
09:22 2.9 °F 1.9 °F 1001.9 in SW 3.2 mph 12.9 mph 93 % 0.0 in
09:32 2.8 °F 1.8 °F 1001.9 in SW 6.4 mph 12.9 mph 93 % 0.0 in
09:37 2.8 °F 1.8 °F 1001.9 in SW 9.7 mph 9.7 mph 93 % 0.0 in
09:42 2.8 °F 1.8 °F 1001.9 in SW 8.0 mph 9.7 mph 93 % 0.0 in
09:47 2.8 °F 1.9 °F 1001.9 in SW 8.0 mph 17.7 mph 94 % 0.0 in
09:52 2.9 °F 2.0 °F 1001.9 in SW 14.5 mph 17.7 mph 94 % 0.0 in
09:57 3.1 °F 2.2 °F 1001.9 in WSW 14.5 mph 17.7 mph 94 % 0.0 in
10:02 3.2 °F 2.2 °F 1001.9 in SW 6.4 mph 17.7 mph 93 % 0.0 in
10:12 3.4 °F 2.4 °F 1002.3 in WSW 8.0 mph 17.7 mph 93 % 0.0 in
10:17 3.6 °F 2.6 °F 1002.3 in SW 12.9 mph 20.9 mph 93 % 0.0 in
10:22 3.7 °F 2.5 °F 1002.3 in SW 6.4 mph 20.9 mph 92 % 0.0 in
10:27 3.8 °F 2.6 °F 1002.3 in SW 16.1 mph 20.9 mph 92 % 0.0 in
10:32 3.9 °F 2.6 °F 1002.3 in WSW 9.7 mph 20.9 mph 91 % 0.0 in
10:37 3.9 °F 2.6 °F 1002.3 in West 12.9 mph 20.9 mph 91 % 0.0 in
10:42 3.9 °F 2.6 °F 1002.3 in WSW 17.7 mph 20.9 mph 91 % 0.0 in
10:47 3.9 °F 2.6 °F 1002.3 in SW 9.7 mph 24.1 mph 91 % 0.0 in
10:52 3.9 °F 2.6 °F 1002.3 in SW 12.9 mph 24.1 mph 91 % 0.0 in
10:57 4.1 °F 2.8 °F 1002.3 in WSW 17.7 mph 24.1 mph 91 % 0.0 in
11:02 4.2 °F 2.9 °F 1002.3 in SW 22.5 mph 24.1 mph 91 % 0.0 in
11:12 4.3 °F 2.8 °F 1001.9 in WSW 24.1 mph 24.1 mph 90 % 0.0 in
11:17 4.4 °F 2.9 °F 1001.9 in WSW 16.1 mph 25.7 mph 90 % 0.0 in
11:22 4.6 °F 3.1 °F 1001.9 in WSW 24.1 mph 29.0 mph 90 % 0.0 in
11:32 4.8 °F 3.1 °F 1001.9 in WSW 25.7 mph 29.0 mph 89 % 0.0 in
11:37 4.8 °F 3.1 °F 1001.9 in SW 11.3 mph 27.4 mph 89 % 0.0 in
11:42 4.9 °F 3.2 °F 1001.9 in WSW 9.7 mph 27.4 mph 89 % 0.0 in
11:52 5.0 °F 3.2 °F 1001.9 in SW 22.5 mph 30.6 mph 88 % 0.0 in
12:02 5.1 °F 3.3 °F 1001.6 in SW 20.9 mph 25.7 mph 88 % 0.0 in
12:12 5.2 °F 3.4 °F 1001.6 in SW 8.0 mph 25.7 mph 88 % 0.0 in
12:17 5.3 °F 3.5 °F 1001.6 in WSW 17.7 mph 25.7 mph 88 % 0.0 in
12:22 5.3 °F 3.3 °F 1001.6 in WSW 12.9 mph 25.7 mph 87 % 0.0 in
12:27 5.4 °F 3.4 °F 1001.6 in WSW 11.3 mph 25.7 mph 87 % 0.0 in
12:32 5.4 °F 3.4 °F 1001.2 in WSW 11.3 mph 25.7 mph 87 % 0.0 in
12:37 5.5 °F 3.5 °F 1001.2 in West 14.5 mph 25.7 mph 87 % 0.0 in
12:42 5.6 °F 3.6 °F 1001.6 in SW 17.7 mph 25.7 mph 87 % 0.0 in
12:52 5.7 °F 3.5 °F 1001.2 in WNW 11.3 mph 27.4 mph 86 % 0.0 in
12:57 5.8 °F 3.6 °F 1001.2 in SW 11.3 mph 27.4 mph 86 % 0.0 in
13:02 5.8 °F 3.6 °F 1001.2 in WSW 9.7 mph 27.4 mph 86 % 0.0 in
13:12 5.9 °F 3.7 °F 1000.9 in WSW 22.5 mph 32.2 mph 86 % 0.0 in
13:17 6.1 °F 3.8 °F 1000.9 in West 11.3 mph 27.4 mph 85 % 0.0 in
13:22 6.3 °F 4.0 °F 1000.6 in WSW 12.9 mph 27.4 mph 85 % 0.0 in
13:32 6.4 °F 3.9 °F 1000.6 in SW 16.1 mph 27.4 mph 84 % 0.0 in
13:37 6.5 °F 3.8 °F 1000.6 in WSW 19.3 mph 25.7 mph 83 % 0.0 in
13:42 6.6 °F 3.9 °F 1000.6 in SW 6.4 mph 25.7 mph 83 % 0.0 in
13:47 6.7 °F 4.2 °F 1000.6 in WSW 11.3 mph 30.6 mph 84 % 0.0 in
13:52 6.8 °F 4.1 °F 1000.6 in SW 20.9 mph 30.6 mph 83 % 0.0 in
13:57 6.8 °F 4.1 °F 1000.2 in WSW 17.7 mph 30.6 mph 83 % 0.0 in
14:02 6.8 °F 4.1 °F 1000.2 in WSW 12.9 mph 30.6 mph 83 % 0.0 in
14:12 7.0 °F 4.0 °F 1000.6 in WSW 12.9 mph 27.4 mph 81 % 0.0 in
14:17 6.9 °F 3.9 °F 1000.2 in West 20.9 mph 30.6 mph 81 % 0.0 in
14:22 6.9 °F 3.9 °F 1000.2 in WSW 20.9 mph 30.6 mph 81 % 0.0 in
14:32 6.9 °F 4.0 °F 999.9 in WSW 6.4 mph 30.6 mph 82 % 0.0 in
14:42 6.9 °F 4.2 °F 999.9 in SSW 8.0 mph 24.1 mph 83 % 0.0 in
14:47 6.9 °F 4.0 °F 999.5 in WSW 14.5 mph 27.4 mph 82 % 0.0 in
14:52 7.0 °F 4.0 °F 999.5 in WSW 25.7 mph 32.2 mph 81 % 0.0 in
14:57 7.0 °F 4.0 °F 999.5 in WSW 16.1 mph 33.8 mph 81 % 0.0 in
15:02 7.0 °F 4.0 °F 999.5 in SW 12.9 mph 33.8 mph 81 % 0.0 in
15:07 7.0 °F 4.0 °F 999.5 in SW 6.4 mph 32.2 mph 81 % 0.0 in
15:12 7.0 °F 4.1 °F 999.2 in SSW 9.7 mph 25.7 mph 82 % 0.0 in
15:17 6.9 °F 4.0 °F 999.2 in WSW 11.3 mph 27.4 mph 82 % 0.0 in
15:27 6.8 °F 4.3 °F 999.2 in WSW 14.5 mph 27.4 mph 84 % 0.3 in
15:32 6.7 °F 4.4 °F 999.2 in SW 16.1 mph 25.7 mph 85 % 0.3 in
15:42 6.6 °F 4.3 °F 999.2 in WSW 22.5 mph 25.7 mph 85 % 0.3 in
15:47 6.5 °F 4.2 °F 999.2 in SW 12.9 mph 25.7 mph 85 % 0.3 in
15:52 6.5 °F 4.2 °F 999.2 in WSW 16.1 mph 25.7 mph 85 % 0.3 in
15:57 6.6 °F 4.3 °F 999.2 in SW 16.1 mph 25.7 mph 85 % 0.3 in
16:02 6.5 °F 4.2 °F 999.5 in West 12.9 mph 22.5 mph 85 % 0.5 in
16:07 6.1 °F 4.1 °F 999.2 in WSW 8.0 mph 30.6 mph 87 % 1.0 in
16:12 6.0 °F 4.2 °F 999.2 in SW 20.9 mph 30.6 mph 88 % 1.5 in
16:17 6.0 °F 4.0 °F 999.2 in SW 11.3 mph 38.6 mph 87 % 1.5 in
16:22 5.8 °F 3.8 °F 999.2 in WSW 17.7 mph 38.6 mph 87 % 1.5 in
16:27 5.5 °F 3.7 °F 999.5 in WSW 14.5 mph 38.6 mph 88 % 1.5 in
16:32 5.3 °F 3.6 °F 999.5 in SW 17.7 mph 35.4 mph 89 % 1.5 in
16:37 5.2 °F 3.7 °F 999.5 in WSW 16.1 mph 35.4 mph 90 % 1.5 in
16:42 5.2 °F 3.9 °F 999.5 in SW 12.9 mph 27.4 mph 91 % 1.5 in
16:52 5.3 °F 4.0 °F 999.5 in WSW 12.9 mph 24.1 mph 91 % 1.8 in
17:02 5.3 °F 3.8 °F 999.5 in West 9.7 mph 30.6 mph 90 % 1.5 in
17:12 5.3 °F 3.6 °F 999.9 in SSW 9.7 mph 30.6 mph 89 % 0.5 in
17:17 5.2 °F 3.7 °F 999.5 in West 6.4 mph 30.6 mph 90 % 0.5 in
17:22 5.1 °F 3.6 °F 999.5 in West 14.5 mph 22.5 mph 90 % 0.5 in
17:27 5.1 °F 3.6 °F 999.5 in WSW 6.4 mph 20.9 mph 90 % 0.5 in
17:32 4.9 °F 3.4 °F 999.5 in West 16.1 mph 20.9 mph 90 % 0.5 in
17:42 4.9 °F 3.4 °F 999.5 in WNW 3.2 mph 19.3 mph 90 % 0.5 in
17:47 4.9 °F 3.4 °F 999.9 in SW 14.5 mph 16.1 mph 90 % 0.3 in
17:52 4.9 °F 3.6 °F 999.9 in WSW 9.7 mph 20.9 mph 91 % 0.0 in
17:57 4.9 °F 3.4 °F 999.9 in West 12.9 mph 24.1 mph 90 % 0.3 in
18:07 4.7 °F 3.0 °F 999.9 in NW 11.3 mph 25.7 mph 89 % 0.3 in
18:12 4.5 °F 2.8 °F 1000.2 in WNW 14.5 mph 33.8 mph 89 % 0.3 in
18:17 4.3 °F 2.6 °F 1000.2 in West 16.1 mph 33.8 mph 89 % 0.3 in
18:22 4.1 °F 2.6 °F 1000.2 in WNW 12.9 mph 33.8 mph 90 % 0.3 in
18:32 3.9 °F 2.4 °F 1000.6 in WNW 17.7 mph 30.6 mph 90 % 0.3 in
18:42 3.7 °F 2.4 °F 1000.6 in Calm   32.2 mph 91 % 0.5 in
18:47 3.6 °F 2.4 °F 1000.9 in West 9.7 mph 25.7 mph 92 % 0.5 in
18:52 3.4 °F 2.1 °F 1000.9 in North 19.3 mph 33.8 mph 91 % 0.5 in
18:57 3.3 °F 2.0 °F 1001.2 in NNW 4.8 mph 33.8 mph 91 % 0.5 in
19:02 3.2 °F 1.9 °F 1001.2 in NW 8.0 mph 33.8 mph 91 % 0.5 in
19:07 3.1 °F 1.9 °F 1001.2 in West 9.7 mph 32.2 mph 92 % 0.5 in
19:17 3.1 °F 1.9 °F 1001.6 in WNW 17.7 mph 24.1 mph 92 % 0.5 in
19:22 3.1 °F 1.9 °F 1001.6 in WNW 3.2 mph 27.4 mph 92 % 0.5 in
19:27 3.1 °F 1.9 °F 1001.6 in WNW 24.1 mph 27.4 mph 92 % 0.5 in
19:32 3.1 °F 1.9 °F 1001.6 in NW 12.9 mph 25.7 mph 92 % 0.5 in
19:42 3.1 °F 1.9 °F 1001.9 in WNW 9.7 mph 33.8 mph 92 % 0.5 in
19:47 3.1 °F 1.9 °F 1001.9 in WNW 19.3 mph 33.8 mph 92 % 0.5 in
19:52 3.1 °F 1.9 °F 1002.3 in WNW 11.3 mph 25.7 mph 92 % 0.5 in
19:57 3.1 °F 1.9 °F 1002.3 in WNW 14.5 mph 24.1 mph 92 % 0.3 in
20:02 3.1 °F 1.9 °F 1002.3 in WNW 4.8 mph 27.4 mph 92 % 0.3 in
20:07 3.2 °F 2.0 °F 1002.6 in NW 24.1 mph 29.0 mph 92 % 0.3 in
20:12 3.2 °F 2.0 °F 1002.6 in WNW 11.3 mph 29.0 mph 92 % 0.5 in
20:17 3.2 °F 2.0 °F 1002.6 in WNW 9.7 mph 29.0 mph 92 % 0.5 in
20:22 3.3 °F 2.1 °F 1002.9 in WNW 14.5 mph 33.8 mph 92 % 0.5 in
20:27 3.3 °F 2.1 °F 1002.9 in WNW 9.7 mph 33.8 mph 92 % 0.5 in
20:32 3.3 °F 2.1 °F 1003.3 in WNW 16.1 mph 33.8 mph 92 % 0.3 in
20:42 3.4 °F 2.2 °F 1003.6 in NNW 16.1 mph 29.0 mph 92 % 0.3 in
20:47 3.4 °F 2.2 °F 1003.6 in NW 17.7 mph 29.0 mph 92 % 0.3 in
20:52 3.4 °F 2.2 °F 1003.9 in NW 8.0 mph 29.0 mph 92 % 0.3 in
20:57 3.4 °F 2.2 °F 1003.9 in WNW 20.9 mph 22.5 mph 92 % 0.5 in
21:02 3.3 °F 2.1 °F 1003.9 in WNW 14.5 mph 27.4 mph 92 % 0.5 in
21:07 3.3 °F 2.3 °F 1003.9 in NW 8.0 mph 27.4 mph 93 % 0.5 in
21:12 3.4 °F 2.2 °F 1004.3 in WNW 9.7 mph 27.4 mph 92 % 0.3 in
21:22 3.4 °F 2.2 °F 1004.3 in NW 9.7 mph 22.5 mph 92 % 0.3 in
21:27 3.5 °F 2.3 °F 1004.3 in West 6.4 mph 25.7 mph 92 % 0.3 in
21:32 3.5 °F 2.3 °F 1004.6 in NW 12.9 mph 25.7 mph 92 % 0.3 in
21:37 3.6 °F 2.3 °F 1004.6 in WNW 12.9 mph 25.7 mph 91 % 0.3 in
21:42 3.6 °F 2.3 °F 1004.6 in NW 8.0 mph 20.9 mph 91 % 0.3 in
21:47 3.6 °F 2.3 °F 1004.6 in WNW 11.3 mph 24.1 mph 91 % 0.3 in
21:52 3.6 °F 2.3 °F 1004.6 in WNW 4.8 mph 24.1 mph 91 % 0.0 in
21:57 3.6 °F 2.1 °F 1005.0 in NW 8.0 mph 25.7 mph 90 % 0.0 in
22:02 3.6 °F 2.1 °F 1005.0 in WNW 16.1 mph 25.7 mph 90 % 0.0 in
22:12 3.6 °F 2.1 °F 1005.0 in WNW 3.2 mph 25.7 mph 90 % 0.0 in
22:17 3.7 °F 2.2 °F 1005.3 in WNW 11.3 mph 25.7 mph 90 % 0.0 in
22:22 3.7 °F 2.2 °F 1005.3 in WNW 8.0 mph 25.7 mph 90 % 0.0 in
22:27 3.7 °F 2.2 °F 1005.3 in NW 4.8 mph 19.3 mph 90 % 0.0 in
22:32 3.7 °F 2.2 °F 1005.6 in NNW 6.4 mph 16.1 mph 90 % 0.0 in
22:37 3.7 °F 2.2 °F 1005.6 in WNW 8.0 mph 16.1 mph 90 % 0.0 in
22:42 3.7 °F 2.1 °F 1005.6 in WNW 9.7 mph 25.7 mph 89 % 0.0 in
22:47 3.7 °F 2.1 °F 1005.6 in NW 8.0 mph 25.7 mph 89 % 0.0 in
22:52 3.6 °F 2.0 °F 1006.0 in WNW 22.5 mph 25.7 mph 89 % 0.0 in
22:57 3.4 °F 1.9 °F 1006.0 in WNW 8.0 mph 27.4 mph 90 % 0.0 in
23:07 3.5 °F 2.0 °F 1006.0 in WNW 9.7 mph 24.1 mph 90 % 0.0 in
23:12 3.5 °F 2.0 °F 1006.3 in WNW 1.6 mph 17.7 mph 90 % 0.0 in
23:22 3.5 °F 2.2 °F 1006.3 in West 3.2 mph 12.9 mph 91 % 0.0 in
23:27 3.5 °F 2.2 °F 1006.7 in NW 4.8 mph 14.5 mph 91 % 0.0 in
23:32 3.4 °F 2.1 °F 1006.7 in WNW 3.2 mph 14.5 mph 91 % 0.3 in
23:42 3.3 °F 2.1 °F 1006.7 in WNW 6.4 mph 14.5 mph 92 % 0.3 in
23:47 3.2 °F 2.0 °F 1006.7 in WNW 4.8 mph 17.7 mph 92 % 0.3 in
23:52 3.2 °F 2.0 °F 1006.7 in NW 12.9 mph 19.3 mph 92 % 0.3 in
23:57 3.2 °F 2.0 °F 1007.0 in WNW 14.5 mph 22.5 mph 92 % 0.5 in
Meteo18
Compliments of Weather Underground - 4 mb

Script developed by  Jim McMurry - jmcmurry@mwt.net Adapted for the template by  Wim van der Kuil - Leuven-Template.eu

You find our weather info also at:

European Weather Network

Weather Underground

Equipment we use:

Weather-station
Davis Vue

Weather-program
Meteobridge

Weather-server
Raspberry PI 2 B+

Provider
1 and 1

Davis Vue

Meteobridge

Raspberry PI 2 B+

1 and 1